Mount Pleasant, IA

4:05 AM CST on December 16, 2017 (GMT -0600)
Mount Pleasant Municipal

Weather History for KMPZ - February, 2014

Change the Weather History Date:

Wednesday, February 5, 2014

  Actual Average Record
Temperature  
Mean Temperature 8 °F -  
Max Temperature 17 °F 31 °F 57 °F (1990)
Min Temperature 0 °F 13 °F -19 °F (1979)
Degree Days  
Heating Degree Days 56    
Moisture  
Dew Point 3 °F    
Average Humidity 73    
Maximum Humidity 86    
Minimum Humidity 60    
Precipitation  
Precipitation 0.00 in - - ()
Sea Level Pressure  
Sea Level Pressure 30.38 in    
Wind  
Wind Speed 16 mph (NW)    
Max Wind Speed 23 mph    
Max Gust Speed 28 mph    
Visibility 7 miles    
Events Snow    
Averages and records for this station are not official NWS values.
T = Trace of Precipitation, MM = Missing Value Source: NWS Daily Summary

Daily Weather History Graph

Daily Weather History Graph

Search for Another Location

Airport or City:

Trip Planner

Search our weather history database for the weather conditions in past years. The results will help you decide how hot, cold, wet, or windy it might be!

Date:

Astronomy

Feb. 05, 2014 Rise Set
Actual Time 7:12 AM CST 5:28 PM CST
Civil Twilight 6:43 AM CST 5:57 PM CST
Nautical Twilight 6:10 AM CST 6:29 PM CST
Astronomical Twilight 5:38 AM CST 7:01 PM CST
Moon 10:24 AM CST (2/5) No Moon Set
Length of Visible Light 11h 13m
Length of Day
10h 15m
Waxing Crescent, 39% of the Moon is Illuminated
Feb 5
Waxing Crescent
Feb 6
First Quarter
Feb 14
Full
Feb 22
Last Quarter
Mar 1
New

Hourly Weather History & Observations

Time (CST) Temp. Windchill Dew Point Humidity Pressure Visibility Wind Dir Wind Speed Gust Speed Precip Events Conditions
12:15 AM 17.2 °F 1.2 °F 13.6 °F 86% 30.15 in - North 18.4 mph 23.0 mph N/A   Overcast
12:35 AM 17.2 °F 1.2 °F 13.6 °F 86% 30.14 in - North 18.4 mph - N/A   Overcast
12:55 AM 17.1 °F 1.0 °F 13.5 °F 86% 30.13 in - North 18.4 mph 24.2 mph N/A   Overcast
1:15 AM 17.2 °F 0.8 °F 13.6 °F 86% 30.13 in - North 19.6 mph 24.2 mph N/A   Overcast
1:35 AM 17.2 °F -0.0 °F 13.6 °F 86% 30.13 in - North 21.9 mph - N/A   Overcast
1:55 AM 17.2 °F 0.4 °F 13.5 °F 85% 30.13 in - North 20.7 mph 25.3 mph N/A   Overcast
2:15 AM 17.2 °F -0.4 °F 13.5 °F 85% 30.13 in - North 23.0 mph - N/A   Overcast
2:35 AM 17.4 °F 0.6 °F 13.5 °F 84% 30.14 in - NNW 20.7 mph - N/A   Overcast
2:55 AM 17.2 °F 0.8 °F 13.1 °F 84% 30.14 in - NNW 19.6 mph - N/A   Overcast
3:15 AM 16.7 °F 1.0 °F 12.7 °F 84% 30.15 in - NNW 17.3 mph 25.3 mph N/A   Unknown
3:35 AM 16.3 °F -0.4 °F 12.2 °F 84% 30.16 in - NNW 19.6 mph - N/A   Overcast
3:55 AM 16.2 °F -0.2 °F 12.0 °F 84% 30.17 in - NNW 18.4 mph 25.3 mph N/A   Overcast
4:15 AM 16.2 °F -0.2 °F 12.0 °F 84% 30.18 in - NNW 18.4 mph 24.2 mph N/A   Overcast
4:35 AM 16.2 °F 0.3 °F 11.7 °F 82% 30.18 in - NNW 17.3 mph 26.5 mph N/A   Overcast
4:55 AM 15.8 °F -0.6 °F 11.3 °F 82% 30.20 in 2.5 mi NW 18.4 mph 25.3 mph N/A Snow Light Snow
5:15 AM 14.9 °F -2.3 °F 10.4 °F 82% 30.20 in 2.0 mi NNW 19.6 mph - N/A Snow Light Snow
5:35 AM 14.2 °F -1.2 °F 9.7 °F 82% 30.22 in 2.0 mi NW 15.0 mph 20.7 mph N/A Snow Light Snow
5:55 AM 13.3 °F -3.4 °F 8.6 °F 82% 30.23 in 2.0 mi NW 17.3 mph 23.0 mph N/A Snow Light Snow
6:15 AM 12.6 °F -4.4 °F 7.5 °F 80% 30.25 in 3.0 mi NW 17.3 mph 23.0 mph N/A Snow Light Snow
6:35 AM 12.2 °F -4.3 °F 6.8 °F 79% 30.25 in 5.0 mi NW 16.1 mph 20.7 mph N/A Snow Light Snow
6:55 AM 12.0 °F -4.0 °F 6.6 °F 79% 30.27 in 5.0 mi NW 15.0 mph 23.0 mph N/A Snow Light Snow
7:15 AM 11.7 °F -3.2 °F 5.9 °F 78% 30.29 in 7.0 mi NW 12.7 mph 20.7 mph N/A   Scattered Clouds
7:35 AM 11.3 °F -3.6 °F 5.9 °F 79% 30.30 in 5.0 mi NW 12.7 mph 20.7 mph N/A Snow Light Snow
7:55 AM 11.3 °F -4.3 °F 5.7 °F 78% 30.32 in 3.0 mi NW 13.8 mph 19.6 mph N/A Snow Light Snow
8:15 AM 10.8 °F -6.7 °F 4.5 °F 76% 30.33 in 2.0 mi NW 17.3 mph 23.0 mph N/A Snow Light Snow
8:35 AM 10.4 °F -6.6 °F 4.8 °F 78% 30.35 in 1.2 mi NW 16.1 mph 24.2 mph N/A Snow Light Snow
8:55 AM 10.4 °F -7.2 °F 4.6 °F 78% 30.35 in 1.2 mi NW 17.3 mph 25.3 mph N/A Snow Light Snow
9:15 AM 10.4 °F -6.6 °F 4.1 °F 76% 30.37 in 1.8 mi NW 16.1 mph 27.6 mph N/A Snow Light Snow
9:35 AM 10.9 °F -7.5 °F 4.1 °F 74% 30.38 in 3.0 mi NW 19.6 mph 24.2 mph N/A Snow Light Snow
9:55 AM 11.1 °F -6.7 °F 3.6 °F 72% 30.39 in 3.0 mi NW 18.4 mph 27.6 mph N/A Snow Light Snow
10:15 AM 11.3 °F -4.3 °F 3.2 °F 70% 30.40 in 5.0 mi NW 13.8 mph 19.6 mph N/A Snow Light Snow
10:35 AM 11.7 °F -4.4 °F 3.2 °F 69% 30.41 in 5.0 mi WNW 15.0 mph 21.9 mph N/A Snow Light Snow
10:55 AM 11.1 °F -3.9 °F 3.6 °F 72% 30.42 in 1.2 mi NW 12.7 mph 21.9 mph N/A Snow Light Snow
11:15 AM 11.7 °F -3.8 °F 3.6 °F 70% 30.43 in 1.8 mi NW 13.8 mph 19.6 mph N/A Snow Light Snow
11:35 AM 11.3 °F -3.6 °F 2.7 °F 68% 30.43 in 3.0 mi NW 12.7 mph 19.6 mph N/A Snow Light Snow
11:55 AM 11.5 °F -3.4 °F 2.5 °F 67% 30.43 in 5.0 mi NW 12.7 mph 19.6 mph N/A   Haze
12:15 PM 11.8 °F -4.2 °F 2.8 °F 67% 30.42 in 4.0 mi NW 15.0 mph 20.7 mph N/A   Haze
12:35 PM 12.0 °F -2.0 °F 2.7 °F 66% 30.42 in 5.0 mi NW 11.5 mph 19.6 mph N/A   Haze
12:55 PM 12.2 °F -1.8 °F 2.7 °F 66% 30.42 in 7.0 mi NW 11.5 mph - N/A   Clear
1:15 PM 11.8 °F -3.6 °F 1.9 °F 65% 30.43 in 10.0 mi NNW 13.8 mph 18.4 mph N/A   Scattered Clouds
1:35 PM 12.9 °F -1.6 °F 2.5 °F 63% 30.43 in 10.0 mi NW 12.7 mph 18.4 mph N/A   Scattered Clouds
1:55 PM 12.7 °F -1.8 °F 2.1 °F 63% 30.43 in 10.0 mi NW 12.7 mph 16.1 mph N/A   Clear
2:15 PM 12.9 °F -2.2 °F 2.3 °F 63% 30.43 in 7.0 mi NW 13.8 mph 23.0 mph N/A   Clear
2:35 PM 11.7 °F -5.5 °F 1.4 °F 63% 30.45 in 10.0 mi WNW 17.3 mph 20.7 mph N/A   Scattered Clouds
2:55 PM 12.9 °F -2.8 °F 1.9 °F 62% 30.45 in 10.0 mi NW 15.0 mph - N/A   Scattered Clouds
3:15 PM 13.1 °F -1.4 °F 1.6 °F 60% 30.47 in 10.0 mi NW 12.7 mph 18.4 mph N/A   Mostly Cloudy
3:35 PM 12.4 °F -2.3 °F 1.2 °F 61% 30.48 in 10.0 mi NW 12.7 mph 19.6 mph N/A   Overcast
3:55 PM 11.7 °F -3.2 °F 0.7 °F 61% 30.48 in 10.0 mi WNW 12.7 mph 18.4 mph N/A   Mostly Cloudy
4:15 PM 9.9 °F -4.7 °F 0.1 °F 65% 30.49 in 10.0 mi NW 11.5 mph 18.4 mph N/A   Overcast
4:35 PM 9.7 °F -5.7 °F 0.1 °F 65% 30.49 in 7.0 mi NW 12.7 mph 18.4 mph N/A Snow Light Snow
4:55 PM 9.5 °F -5.2 °F 0.1 °F 66% 30.50 in 7.0 mi WNW 11.5 mph 17.3 mph N/A Snow Light Snow
5:15 PM 9.1 °F -7.0 °F -0.4 °F 65% 30.51 in 10.0 mi WNW 13.8 mph 23.0 mph N/A Snow Light Snow
5:35 PM 8.6 °F -7.0 °F -0.6 °F 66% 30.52 in 10.0 mi WNW 12.7 mph 17.3 mph N/A Snow Light Snow
5:55 PM 8.2 °F -7.5 °F -1.3 °F 65% 30.52 in 10.0 mi WNW 12.7 mph 18.4 mph N/A Snow Light Snow
6:15 PM 7.7 °F -6.6 °F -1.7 °F 66% 30.54 in 10.0 mi WNW 10.4 mph 17.3 mph N/A   Overcast
6:35 PM 6.8 °F -8.6 °F -2.2 °F 67% 30.54 in 10.0 mi WNW 11.5 mph - N/A   Scattered Clouds
6:55 PM 6.3 °F -7.5 °F -3.1 °F 65% 30.55 in 10.0 mi WNW 9.2 mph - N/A   Clear
7:15 PM 5.9 °F -8.9 °F -3.6 °F 65% 30.55 in 10.0 mi WNW 10.4 mph - N/A   Clear
7:35 PM 5.2 °F -8.9 °F -4.0 °F 66% 30.55 in 10.0 mi WNW 9.2 mph - N/A   Clear
7:55 PM 4.8 °F -9.3 °F -4.2 °F 66% 30.55 in 10.0 mi WNW 9.2 mph - N/A   Clear
8:15 PM 4.1 °F -8.0 °F -4.4 °F 68% 30.55 in 10.0 mi WNW 6.9 mph - N/A   Clear
8:35 PM 3.7 °F -8.4 °F -4.7 °F 68% 30.55 in 10.0 mi WNW 6.9 mph - N/A   Clear
8:55 PM 3.2 °F -9.1 °F -5.1 °F 68% 30.55 in 10.0 mi WNW 6.9 mph - N/A   Clear
9:15 PM 2.7 °F -8.4 °F -5.6 °F 68% 30.55 in 10.0 mi WNW 5.8 mph - N/A   Clear
9:35 PM 2.5 °F -7.0 °F -5.6 °F 69% 30.55 in 10.0 mi WNW 4.6 mph - N/A   Clear
9:55 PM 1.4 °F -11.3 °F -6.0 °F 71% 30.55 in 10.0 mi West 6.9 mph - N/A   Clear
10:15 PM 0.9 °F -11.9 °F -6.2 °F 72% 30.55 in 10.0 mi WNW 6.9 mph - N/A   Clear
10:35 PM 0.9 °F -11.9 °F -6.3 °F 72% 30.56 in 10.0 mi WNW 6.9 mph - N/A   Clear
10:55 PM -0.2 °F -14.4 °F -7.2 °F 72% 30.55 in 10.0 mi West 8.1 mph - N/A   Clear
11:15 PM -0.4 °F -13.4 °F -7.4 °F 72% 30.55 in 10.0 mi West 6.9 mph - N/A   Clear
11:35 PM -0.8 °F -13.9 °F -7.6 °F 73% 30.55 in 10.0 mi West 6.9 mph - N/A   Clear
11:55 PM -0.6 °F -14.9 °F -7.6 °F 72% 30.56 in 10.0 mi West 8.1 mph - N/A   Clear